Time;durP1;ratioP1;P1;durP2;ratioP2;P2;SDS_P1;SDS_P2;PMS_P1;PMS_P2;Temp;Humidity;BMP_temperature;BMP_pressure;BME280_temperature;BME280_humidity;BME280_pressure;Samples;Min_cycle;Max_cycle;Signal;HPM_P1;HPM_P2
2023/03/13 00:00:29;;;;;;;13.68;8.07;;;6.60;1.00;;;;;;5054625;28;20486;-78
2023/03/13 00:02:55;;;;;;;21.88;14.73;;;6.60;1.00;;;;;;5044873;28;20244;-78
2023/03/13 00:05:22;;;;;;;14.55;9.10;;;6.60;1.00;;;;;;5044847;28;20987;-78
2023/03/13 00:07:49;;;;;;;16.73;10.83;;;6.70;1.00;;;;;;5065628;28;21060;-78
2023/03/13 00:10:18;;;;;;;16.30;8.77;;;6.70;1.00;;;;;;5071768;28;20564;-79
2023/03/13 00:12:44;;;;;;;11.10;9.10;;;6.70;1.00;;;;;;5067995;28;20473;-79
2023/03/13 00:15:11;;;;;;;13.10;8.83;;;6.80;1.00;;;;;;5065919;28;20585;-78
2023/03/13 00:17:38;;;;;;;15.82;8.70;;;6.80;1.00;;;;;;5066826;28;21005;-79
2023/03/13 00:20:07;;;;;;;14.40;10.03;;;6.80;1.00;;;;;;5066138;28;20256;-78
2023/03/13 00:22:35;;;;;;;16.25;9.95;;;6.80;1.00;;;;;;5062662;28;20540;-78
2023/03/13 00:25:01;;;;;;;15.67;9.40;;;6.90;1.00;;;;;;5065612;28;20366;-78
2023/03/13 00:27:32;;;;;;;18.07;9.97;;;6.90;1.00;;;;;;5066274;28;20503;-78
2023/03/13 00:29:59;;;;;;;15.70;10.10;;;7.00;1.00;;;;;;5059838;28;21312;-79
2023/03/13 00:32:26;;;;;;;19.53;9.33;;;7.00;1.00;;;;;;5061526;28;20459;-78
2023/03/13 00:34:53;;;;;;;18.50;8.87;;;7.00;1.00;;;;;;5054233;27;20499;-79
2023/03/13 00:37:20;;;;;;;15.60;8.57;;;7.10;1.00;;;;;;5049851;28;21046;-79
2023/03/13 00:39:47;;;;;;;16.73;8.60;;;7.10;1.00;;;;;;5043400;28;20546;-78
2023/03/13 00:42:16;;;;;;;12.40;8.40;;;7.20;1.00;;;;;;5060313;27;20957;-80
2023/03/13 00:44:44;;;;;;;17.30;9.87;;;7.20;1.00;;;;;;5064053;27;20500;-78
2023/03/13 00:47:11;;;;;;;22.30;9.60;;;7.30;1.00;;;;;;5065662;27;20451;-79
2023/03/13 00:49:38;;;;;;;18.53;9.17;;;7.30;1.00;;;;;;5065991;27;20429;-79
2023/03/13 00:52:05;;;;;;;16.97;8.67;;;7.40;1.00;;;;;;5063211;27;20505;-79
2023/03/13 00:54:32;;;;;;;10.73;8.23;;;7.40;1.00;;;;;;5056530;27;20564;-80
2023/03/13 00:57:02;;;;;;;16.03;9.60;;;7.40;1.00;;;;;;5044057;28;20467;-79
2023/03/13 00:59:29;;;;;;;17.20;8.83;;;7.40;1.00;;;;;;5053402;28;20467;-79
2023/03/13 01:01:57;;;;;;;15.37;8.83;;;7.40;1.00;;;;;;5065881;28;20493;-79
2023/03/13 01:04:24;;;;;;;17.80;9.30;;;7.40;1.00;;;;;;5063194;28;20557;-79
2023/03/13 01:06:51;;;;;;;14.57;9.00;;;7.50;1.00;;;;;;5063448;28;20429;-78
2023/03/13 01:09:18;;;;;;;17.70;9.70;;;7.50;1.00;;;;;;5064781;28;20509;-79
2023/03/13 01:11:46;;;;;;;18.77;9.10;;;7.50;1.00;;;;;;5064460;28;20561;-79
2023/03/13 01:14:16;;;;;;;17.27;8.80;;;7.50;1.00;;;;;;5052640;28;20553;-79
2023/03/13 01:16:43;;;;;;;14.30;8.90;;;7.60;1.00;;;;;;5042310;28;20457;-79
2023/03/13 01:19:13;;;;;;;14.73;8.93;;;7.60;1.00;;;;;;5047585;28;20548;-79
2023/03/13 01:21:40;;;;;;;18.93;9.30;;;7.50;1.00;;;;;;5042223;28;20520;-78
2023/03/13 01:24:08;;;;;;;16.43;9.83;;;7.50;1.00;;;;;;5048336;28;20583;-78
2023/03/13 01:26:35;;;;;;;14.40;8.85;;;7.50;1.00;;;;;;5045390;28;20547;-79
2023/03/13 01:29:02;;;;;;;14.03;8.30;;;7.40;1.00;;;;;;5055692;28;20290;-77
2023/03/13 01:31:30;;;;;;;13.63;8.93;;;7.50;1.00;;;;;;5065733;28;20457;-78
2023/03/13 01:33:59;;;;;;;15.07;9.03;;;7.50;1.00;;;;;;5062236;27;20479;-79
2023/03/13 01:36:28;;;;;;;12.10;8.70;;;7.50;1.00;;;;;;5060027;28;20557;-79
2023/03/13 01:38:57;;;;;;;19.20;10.77;;;7.60;1.00;;;;;;5061072;28;20460;-79
2023/03/13 01:41:25;;;;;;;14.17;8.70;;;7.60;1.00;;;;;;5064787;28;20529;-80
2023/03/13 01:43:54;;;;;;;11.67;8.90;;;7.60;1.00;;;;;;5063272;28;21175;-79
2023/03/13 01:46:23;;;;;;;16.63;9.30;;;7.60;1.00;;;;;;5065819;28;20456;-80
2023/03/13 01:48:54;;;;;;;14.60;8.23;;;7.60;1.00;;;;;;5068250;28;20456;-78
2023/03/13 01:51:25;;;;;;;13.80;8.67;;;7.60;1.00;;;;;;5069683;28;20534;-79
2023/03/13 01:54:00;;;;;;;12.53;8.37;;;7.70;1.00;;;;;;5061983;28;20512;-79
2023/03/13 01:56:33;;;;;;;14.73;8.20;;;7.70;1.00;;;;;;5059776;28;20494;-79
2023/03/13 01:59:04;;;;;;;15.07;9.03;;;7.70;1.00;;;;;;5058514;28;20525;-80
2023/03/13 02:01:32;;;;;;;13.40;8.77;;;7.80;1.00;;;;;;5059248;28;21007;-80
2023/03/13 02:04:00;;;;;;;12.87;7.93;;;7.80;1.00;;;;;;5060297;28;20977;-79
2023/03/13 02:06:30;;;;;;;15.90;9.07;;;7.80;1.00;;;;;;5062965;28;20468;-80
2023/03/13 02:09:03;;;;;;;11.80;8.67;;;7.80;1.00;;;;;;5059329;28;20468;-79
2023/03/13 02:11:40;;;;;;;14.90;9.63;;;7.70;1.00;;;;;;5065990;28;20478;-80
2023/03/13 02:14:08;;;;;;;11.67;7.90;;;7.70;1.00;;;;;;5060542;27;20472;-79
2023/03/13 02:16:35;;;;;;;14.30;9.07;;;7.70;1.00;;;;;;5058420;27;20543;-80
2023/03/13 02:19:08;;;;;;;14.03;8.87;;;7.60;1.00;;;;;;5057724;28;20563;-77
2023/03/13 02:21:42;;;;;;;16.30;10.00;;;7.60;1.00;;;;;;5061888;28;20462;-81
2023/03/13 02:24:20;;;;;;;13.50;9.37;;;7.60;1.00;;;;;;5066556;27;20546;-81
2023/03/13 02:26:48;;;;;;;14.70;9.77;;;7.60;1.00;;;;;;5061404;28;20511;-79
2023/03/13 02:29:18;;;;;;;14.43;10.50;;;7.50;1.00;;;;;;5048223;28;21071;-80
2023/03/13 02:31:46;;;;;;;13.53;8.90;;;7.50;1.00;;;;;;5036041;28;20642;-78
2023/03/13 02:34:16;;;;;;;14.50;9.60;;;7.50;1.00;;;;;;5043187;28;20469;-78
2023/03/13 02:36:44;;;;;;;12.53;9.50;;;7.40;1.00;;;;;;5060848;28;20463;-79
2023/03/13 02:39:13;;;;;;;14.70;9.73;;;7.40;1.00;;;;;;5066059;27;20459;-79
2023/03/13 02:41:42;;;;;;;16.60;9.50;;;7.40;1.00;;;;;;5059263;27;22654;-79
2023/03/13 02:44:11;;;;;;;14.33;9.30;;;7.40;1.00;;;;;;5042991;28;21379;-78
2023/03/13 02:46:45;;;;;;;17.20;10.00;;;7.40;1.00;;;;;;5040602;28;20487;-79
2023/03/13 02:49:21;;;;;;;16.40;9.13;;;7.40;1.00;;;;;;5038338;28;20467;-80
2023/03/13 02:51:48;;;;;;;14.23;8.83;;;7.50;1.00;;;;;;5040610;28;20495;-78
2023/03/13 02:54:20;;;;;;;13.57;8.60;;;7.40;1.00;;;;;;5039098;28;20476;-78
2023/03/13 02:56:49;;;;;;;16.75;9.05;;;7.50;1.00;;;;;;5041294;28;20525;-79
2023/03/13 02:59:17;;;;;;;12.67;8.33;;;7.40;1.00;;;;;;5035528;28;20237;-79
2023/03/13 03:01:45;;;;;;;15.50;9.20;;;7.40;1.00;;;;;;5037272;28;20460;-80
2023/03/13 03:04:12;;;;;;;15.33;8.40;;;7.40;1.00;;;;;;5038761;28;20475;-79
2023/03/13 03:06:39;;;;;;;16.33;8.23;;;7.40;1.00;;;;;;5039985;28;20564;-80
2023/03/13 03:09:07;;;;;;;13.70;7.67;;;7.40;1.00;;;;;;5059934;28;20970;-80
2023/03/13 03:11:34;;;;;;;13.30;8.10;;;7.50;1.00;;;;;;5061314;28;20522;-81
2023/03/13 03:14:01;;;;;;;11.73;7.50;;;7.50;1.00;;;;;;5059486;27;20510;-80
2023/03/13 03:16:30;;;;;;;12.55;7.30;;;7.50;1.00;;;;;;5061385;28;20516;-80
2023/03/13 03:18:57;;;;;;;14.65;7.80;;;7.60;1.00;;;;;;5058981;28;20716;-80
2023/03/13 03:21:24;;;;;;;16.57;7.27;;;7.60;1.00;;;;;;5059434;28;20239;-80
2023/03/13 03:23:51;;;;;;;14.63;7.00;;;7.60;1.00;;;;;;5046471;27;20476;-79
2023/03/13 03:26:18;;;;;;;12.50;6.60;;;7.60;1.00;;;;;;5046399;28;20440;-78
2023/03/13 03:28:45;;;;;;;14.33;7.30;;;7.70;1.00;;;;;;5044204;28;21008;-80
2023/03/13 03:31:14;;;;;;;14.70;7.20;;;7.80;1.00;;;;;;5035628;28;20471;-80
2023/03/13 03:33:45;;;;;;;11.30;6.33;;;7.80;1.00;;;;;;5039213;28;21974;-81
2023/03/13 03:36:15;;;;;;;11.55;5.60;;;7.80;1.00;;;;;;5039525;28;20471;-80
2023/03/13 03:38:42;;;;;;;10.80;5.83;;;7.80;1.00;;;;;;5042567;28;20240;-80
2023/03/13 03:41:11;;;;;;;11.20;6.00;;;7.80;1.00;;;;;;5039377;28;20574;-79
2023/03/13 03:43:38;;;;;;;11.60;6.07;;;7.70;1.00;;;;;;5034296;28;20504;-79
2023/03/13 03:46:06;;;;;;;12.50;7.10;;;7.70;1.00;;;;;;5044622;28;20451;-79
2023/03/13 03:48:33;;;;;;;10.27;5.53;;;7.80;1.00;;;;;;5055934;28;20480;-79
2023/03/13 03:51:01;;;;;;;15.17;6.07;;;7.80;1.00;;;;;;5057348;28;20549;-80
2023/03/13 03:53:28;;;;;;;9.60;5.37;;;7.80;1.00;;;;;;5062434;28;20606;-79
2023/03/13 03:55:55;;;;;;;12.10;5.53;;;7.70;1.00;;;;;;5059958;28;20468;-79
2023/03/13 03:58:22;;;;;;;12.27;5.43;;;7.70;1.00;;;;;;5044506;28;20512;-80
2023/03/13 04:00:49;;;;;;;14.60;7.07;;;7.70;1.00;;;;;;5042820;28;20461;-80
2023/03/13 04:03:16;;;;;;;12.70;5.37;;;7.70;1.00;;;;;;5044185;28;20471;-80
2023/03/13 04:05:44;;;;;;;10.27;4.87;;;7.70;1.00;;;;;;5043404;28;20479;-80
2023/03/13 04:08:13;;;;;;;12.73;4.63;;;7.80;1.00;;;;;;5036393;28;20559;-80
2023/03/13 04:10:40;;;;;;;12.40;6.70;;;7.80;1.00;;;;;;5039177;28;20481;-81
2023/03/13 04:13:07;;;;;;;13.20;5.10;;;7.80;1.00;;;;;;5035222;28;20475;-79
2023/03/13 04:15:34;;;;;;;12.60;4.83;;;7.80;1.00;;;;;;5058579;28;20466;-79
2023/03/13 04:18:01;;;;;;;12.40;5.23;;;7.80;1.00;;;;;;5059437;27;20781;-77
2023/03/13 04:20:28;;;;;;;11.10;5.23;;;7.80;1.00;;;;;;5054559;28;20471;-80
2023/03/13 04:22:55;;;;;;;12.53;5.50;;;7.80;1.00;;;;;;5057523;28;20477;-79
2023/03/13 04:25:23;;;;;;;15.33;5.90;;;7.90;1.00;;;;;;5060220;28;20511;-79
2023/03/13 04:27:50;;;;;;;14.13;5.17;;;7.90;1.00;;;;;;5059234;28;20458;-79
2023/03/13 04:30:17;;;;;;;10.40;4.60;;;7.90;1.00;;;;;;5057494;27;20986;-80
2023/03/13 04:32:45;;;;;;;12.50;5.57;;;7.90;1.00;;;;;;5040038;28;20493;-79
2023/03/13 04:35:12;;;;;;;15.23;4.70;;;8.00;1.00;;;;;;5036325;28;20463;-80
2023/03/13 04:37:40;;;;;;;11.70;4.77;;;8.00;1.00;;;;;;5039866;28;20496;-79
2023/03/13 04:40:08;;;;;;;12.30;5.20;;;8.00;1.00;;;;;;5037755;28;20459;-80
2023/03/13 04:42:36;;;;;;;16.30;5.50;;;8.00;1.00;;;;;;5040174;28;20549;-79
2023/03/13 04:45:04;;;;;;;13.10;5.13;;;8.10;1.00;;;;;;5043474;28;20926;-80
2023/03/13 04:47:31;;;;;;;15.73;5.40;;;8.10;1.00;;;;;;5044596;28;20435;-79
2023/03/13 04:49:58;;;;;;;14.50;5.43;;;8.00;1.00;;;;;;5042605;28;20466;-80
2023/03/13 04:52:25;;;;;;;12.43;5.53;;;8.00;1.00;;;;;;5045376;28;20473;-79
2023/03/13 04:54:52;;;;;;;14.23;6.00;;;8.00;1.00;;;;;;5060767;27;21726;-78
2023/03/13 04:57:21;;;;;;;12.70;5.50;;;8.00;1.00;;;;;;5063199;28;20529;-79
2023/03/13 04:59:49;;;;;;;11.80;5.40;;;8.00;1.00;;;;;;5063016;28;20463;-79
2023/03/13 05:02:16;;;;;;;14.70;6.07;;;7.90;1.00;;;;;;5057253;28;20478;-78
2023/03/13 05:04:43;;;;;;;13.07;6.17;;;7.90;1.00;;;;;;5066258;28;21277;-88
2023/03/13 05:07:10;;;;;;;16.77;5.50;;;7.90;1.00;;;;;;5069047;28;20528;-90
2023/03/13 05:09:38;;;;;;;19.83;6.30;;;7.90;1.00;;;;;;5072709;28;20495;-87
2023/03/13 05:12:05;;;;;;;11.20;4.80;;;7.90;1.00;;;;;;5067190;28;20546;-87
2023/03/13 05:14:32;;;;;;;16.07;5.90;;;7.90;1.00;;;;;;5069226;28;20458;-90
2023/03/13 05:17:01;;;;;;;10.80;4.80;;;7.90;1.00;;;;;;5070716;28;21659;-92
2023/03/13 05:19:28;;;;;;;12.93;5.53;;;7.90;1.00;;;;;;5067396;28;20456;-87
2023/03/13 05:21:56;;;;;;;13.02;5.00;;;7.90;1.00;;;;;;5069313;28;20432;-88
2023/03/13 05:24:23;;;;;;;16.65;6.10;;;7.90;1.00;;;;;;5070255;28;20286;-88
2023/03/13 05:26:50;;;;;;;14.20;5.63;;;7.80;1.00;;;;;;5067384;28;20270;-88
2023/03/13 05:29:17;;;;;;;12.70;5.43;;;7.80;1.00;;;;;;5065611;28;20244;-88
2023/03/13 05:31:44;;;;;;;13.77;5.77;;;7.80;1.00;;;;;;5063746;28;20476;-87
2023/03/13 05:34:15;;;;;;;14.30;5.83;;;7.80;1.00;;;;;;5068263;28;20507;-88
2023/03/13 05:36:42;;;;;;;14.97;5.33;;;7.90;1.00;;;;;;5066623;28;21201;-87
2023/03/13 05:39:08;;;;;;;14.60;5.73;;;7.80;1.00;;;;;;5064039;28;20544;-88
2023/03/13 05:41:35;;;;;;;10.90;5.40;;;7.90;1.00;;;;;;5064126;28;20534;-81
2023/03/13 05:44:02;;;;;;;16.30;5.70;;;7.90;1.00;;;;;;5064983;28;20456;-86
2023/03/13 05:46:29;;;;;;;15.77;5.10;;;7.80;1.00;;;;;;5070467;28;20468;-85
2023/03/13 05:48:57;;;;;;;13.43;6.13;;;7.90;1.00;;;;;;5061623;27;20474;-86
2023/03/13 05:51:26;;;;;;;12.87;5.80;;;7.80;1.00;;;;;;5061723;28;20495;-86
2023/03/13 05:53:56;;;;;;;19.90;6.13;;;7.80;1.00;;;;;;5061672;27;21272;-87
2023/03/13 05:56:23;;;;;;;13.00;4.70;;;7.80;1.00;;;;;;5066435;28;20267;-86
2023/03/13 05:58:50;;;;;;;12.93;5.17;;;7.80;1.00;;;;;;5068046;28;20488;-84
2023/03/13 06:01:18;;;;;;;15.50;5.83;;;7.80;1.00;;;;;;5067106;28;20428;-85
2023/03/13 06:03:45;;;;;;;16.57;5.57;;;7.80;1.00;;;;;;5062650;28;20521;-85
2023/03/13 06:06:13;;;;;;;11.60;5.17;;;7.80;1.00;;;;;;5064278;28;20498;-84
2023/03/13 06:08:41;;;;;;;15.73;6.00;;;7.80;1.00;;;;;;5065902;28;20505;-85
2023/03/13 06:11:08;;;;;;;16.20;6.27;;;7.80;1.00;;;;;;5066529;28;20468;-85
2023/03/13 06:13:35;;;;;;;20.60;6.47;;;7.70;1.00;;;;;;5065731;28;21220;-85
2023/03/13 06:16:02;;;;;;;21.37;6.67;;;7.80;1.00;;;;;;5050782;28;20543;-81
2023/03/13 06:18:29;;;;;;;10.70;5.60;;;7.80;1.00;;;;;;5039236;28;20477;-79
2023/03/13 06:21:00;;;;;;;14.90;5.43;;;7.80;1.00;;;;;;5036952;28;21319;-79
2023/03/13 06:23:28;;;;;;;13.80;5.10;;;7.80;1.00;;;;;;5048677;28;20474;-81
2023/03/13 06:25:57;;;;;;;14.33;6.43;;;7.90;1.00;;;;;;5057714;27;20247;-81
2023/03/13 06:28:24;;;;;;;20.93;6.50;;;7.90;1.00;;;;;;5054063;27;20463;-80
2023/03/13 06:30:51;;;;;;;15.97;5.33;;;7.90;1.00;;;;;;5040717;27;20572;-81
2023/03/13 06:33:21;;;;;;;14.37;4.60;;;8.00;1.00;;;;;;5058533;28;20511;-82
2023/03/13 06:35:49;;;;;;;13.03;6.53;;;7.90;1.00;;;;;;5057995;28;20554;-79
2023/03/13 06:38:18;;;;;;;12.23;5.10;;;8.00;1.00;;;;;;5061533;28;20462;-80
2023/03/13 06:40:45;;;;;;;15.53;5.23;;;8.00;1.00;;;;;;5060653;28;20439;-85
2023/03/13 06:43:13;;;;;;;13.27;5.87;;;8.00;1.00;;;;;;5068257;28;20503;-86
2023/03/13 06:45:40;;;;;;;14.85;5.18;;;8.00;1.00;;;;;;5069837;28;20432;-83
2023/03/13 06:48:07;;;;;;;12.27;5.47;;;8.00;1.00;;;;;;5069408;28;20240;-82
2023/03/13 06:50:39;;;;;;;21.60;5.90;;;8.00;1.00;;;;;;5070244;28;20482;-83
2023/03/13 06:53:06;;;;;;;12.37;4.97;;;8.00;1.00;;;;;;5073589;28;20447;-85
2023/03/13 06:55:34;;;;;;;11.53;4.70;;;8.10;1.00;;;;;;5085163;28;20455;-89
2023/03/13 06:58:06;;;;;;;12.13;5.20;;;8.10;1.00;;;;;;5082613;28;20436;-90
2023/03/13 07:00:34;;;;;;;16.37;5.77;;;8.10;1.00;;;;;;5069180;28;20556;-87
2023/03/13 07:03:02;;;;;;;16.27;5.80;;;8.10;1.00;;;;;;5072412;28;20466;-88
2023/03/13 07:05:29;;;;;;;13.10;5.20;;;8.10;1.00;;;;;;5074377;28;20490;-87
2023/03/13 07:07:56;;;;;;;20.60;6.70;;;8.10;1.00;;;;;;5069091;28;21070;-87
2023/03/13 07:10:23;;;;;;;16.00;5.90;;;8.10;1.00;;;;;;5075473;28;20444;-88
2023/03/13 07:12:50;;;;;;;16.13;5.87;;;8.10;1.00;;;;;;5068683;28;20431;-88
2023/03/13 07:15:17;;;;;;;17.50;6.50;;;8.10;1.00;;;;;;5075618;28;20456;-87
2023/03/13 07:17:45;;;;;;;18.67;6.07;;;8.10;1.00;;;;;;5068282;28;20459;-83
2023/03/13 07:20:15;;;;;;;17.63;6.03;;;8.10;1.00;;;;;;5066760;28;21351;-83
2023/03/13 07:22:47;;;;;;;12.90;5.10;;;8.10;1.00;;;;;;5065995;28;21284;-83
2023/03/13 07:25:14;;;;;;;15.67;5.50;;;8.20;1.00;;;;;;5060201;28;20488;-82
2023/03/13 07:27:41;;;;;;;22.13;5.40;;;8.20;1.00;;;;;;5072861;28;20470;-86
2023/03/13 07:30:09;;;;;;;14.93;6.33;;;8.20;1.00;;;;;;5078255;28;20503;-90
2023/03/13 07:32:37;;;;;;;13.80;5.40;;;8.30;1.00;;;;;;5071982;28;20982;-91
2023/03/13 07:35:06;;;;;;;15.93;5.53;;;8.30;1.00;;;;;;5081617;28;20461;-91
2023/03/13 07:37:33;;;;;;;13.70;6.33;;;8.30;1.00;;;;;;5074937;28;20597;-91
2023/03/13 07:40:00;;;;;;;12.37;5.60;;;8.30;1.00;;;;;;5077893;28;20618;-90
2023/03/13 07:42:27;;;;;;;17.17;5.97;;;8.30;1.00;;;;;;5074141;28;20617;-86
2023/03/13 07:44:56;;;;;;;20.03;5.97;;;8.30;1.00;;;;;;5077819;28;20460;-89
2023/03/13 07:47:23;;;;;;;16.47;6.70;;;8.40;1.00;;;;;;5081053;28;20439;-90
2023/03/13 07:49:50;;;;;;;11.97;5.77;;;8.40;1.00;;;;;;5078034;28;20439;-89
2023/03/13 07:52:18;;;;;;;19.53;6.37;;;8.40;1.00;;;;;;5073103;27;20424;-91
2023/03/13 07:54:47;;;;;;;19.70;6.73;;;8.40;1.00;;;;;;5066074;28;20428;-90
2023/03/13 07:57:14;;;;;;;12.43;5.80;;;8.50;1.00;;;;;;5076947;28;20455;-91
2023/03/13 07:59:41;;;;;;;20.87;5.43;;;8.60;1.00;;;;;;5069065;28;20479;-83
2023/03/13 08:02:09;;;;;;;11.87;6.10;;;8.50;1.00;;;;;;5062709;28;20444;-83
2023/03/13 08:04:36;;;;;;;14.43;5.80;;;8.60;1.00;;;;;;5065431;28;20474;-86
2023/03/13 08:07:03;;;;;;;15.23;5.60;;;8.60;1.00;;;;;;5064980;28;21356;-86
2023/03/13 08:09:33;;;;;;;17.53;5.43;;;8.60;1.00;;;;;;5067431;28;21286;-89
2023/03/13 08:12:01;;;;;;;17.00;5.90;;;8.60;1.00;;;;;;5061717;28;20431;-86
2023/03/13 08:14:28;;;;;;;14.43;5.60;;;8.60;1.00;;;;;;5064222;28;20491;-87
2023/03/13 08:16:55;;;;;;;17.23;5.80;;;8.70;1.00;;;;;;5062465;28;20467;-88
2023/03/13 08:19:22;;;;;;;18.50;6.87;;;8.80;1.00;;;;;;5064489;28;20513;-85
2023/03/13 08:21:49;;;;;;;16.90;6.23;;;8.70;1.00;;;;;;5068337;28;20459;-87
2023/03/13 08:24:18;;;;;;;20.97;6.80;;;8.70;1.00;;;;;;5063528;28;20444;-84
2023/03/13 08:26:46;;;;;;;17.27;5.90;;;8.70;1.00;;;;;;5046425;28;20464;-86
2023/03/13 08:29:14;;;;;;;13.50;6.73;;;8.70;1.00;;;;;;5049986;28;20457;-87
2023/03/13 08:31:46;;;;;;;17.30;5.50;;;8.80;1.00;;;;;;5049982;28;20491;-85
2023/03/13 08:34:14;;;;;;;20.53;6.90;;;8.80;1.00;;;;;;5048568;28;20547;-90
2023/03/13 08:36:41;;;;;;;12.93;5.60;;;8.80;1.00;;;;;;5062856;27;20594;-89
2023/03/13 08:39:12;;;;;;;11.33;5.30;;;8.80;1.00;;;;;;5067887;28;20461;-90
2023/03/13 08:41:40;;;;;;;13.90;5.30;;;8.90;1.00;;;;;;5060179;28;20465;-90
2023/03/13 08:44:11;;;;;;;14.50;6.27;;;8.90;1.00;;;;;;5058008;28;20504;-88
2023/03/13 08:46:39;;;;;;;14.27;5.60;;;8.90;1.00;;;;;;5061665;28;20430;-90
2023/03/13 08:49:07;;;;;;;11.53;4.93;;;9.00;1.00;;;;;;5055580;28;20536;-91
2023/03/13 08:51:35;;;;;;;12.17;4.23;;;9.00;1.00;;;;;;5055924;28;20511;-91
2023/03/13 08:54:03;;;;;;;13.20;5.20;;;9.00;1.00;;;;;;5046931;28;20980;-87
2023/03/13 08:56:30;;;;;;;14.27;4.80;;;9.10;1.00;;;;;;5048654;28;20475;-87
2023/03/13 08:59:00;;;;;;;12.57;5.20;;;9.10;1.00;;;;;;5048181;28;20464;-84
2023/03/13 09:01:30;;;;;;;17.03;4.80;;;9.10;1.00;;;;;;5047118;28;20552;-86
2023/03/13 09:03:57;;;;;;;13.67;4.43;;;9.20;1.00;;;;;;5061911;28;20464;-87
2023/03/13 09:06:24;;;;;;;12.13;4.73;;;9.10;1.00;;;;;;5073057;28;20463;-88
2023/03/13 09:08:51;;;;;;;16.17;5.00;;;9.20;1.00;;;;;;5072250;28;20478;-88
2023/03/13 09:11:20;;;;;;;10.17;4.40;;;9.20;1.00;;;;;;5068217;28;20983;-89
2023/03/13 09:13:49;;;;;;;16.00;5.03;;;9.30;1.00;;;;;;5073776;28;20456;-86
2023/03/13 09:16:18;;;;;;;9.97;4.07;;;9.20;1.00;;;;;;5073065;28;20586;-87
2023/03/13 09:18:49;;;;;;;12.70;4.43;;;9.30;1.00;;;;;;5067209;28;20475;-88
2023/03/13 09:21:17;;;;;;;16.20;4.80;;;9.40;1.00;;;;;;5069545;28;20750;-90
2023/03/13 09:23:44;;;;;;;13.30;4.70;;;9.40;1.00;;;;;;5065830;28;20494;-88
2023/03/13 09:26:12;;;;;;;14.63;5.30;;;9.40;1.00;;;;;;5076151;28;20695;-89
2023/03/13 09:28:41;;;;;;;9.27;4.90;;;9.50;1.00;;;;;;5063198;28;20478;-86
2023/03/13 09:31:09;;;;;;;10.13;4.30;;;9.50;1.00;;;;;;5059943;28;20535;-87
2023/03/13 09:33:36;;;;;;;14.30;4.50;;;9.50;1.00;;;;;;5047526;28;20449;-86
2023/03/13 09:36:05;;;;;;;11.00;3.97;;;9.50;1.00;;;;;;5050221;28;20445;-87
2023/03/13 09:38:32;;;;;;;8.70;4.27;;;9.50;1.00;;;;;;5044292;28;20469;-87
2023/03/13 09:41:05;;;;;;;11.73;4.53;;;9.50;1.00;;;;;;5049630;28;20461;-87
2023/03/13 09:43:40;;;;;;;10.57;4.47;;;9.50;1.00;;;;;;5049569;28;20510;-90
2023/03/13 09:46:15;;;;;;;11.97;3.97;;;9.50;1.00;;;;;;5043709;28;20518;-88
2023/03/13 09:48:46;;;;;;;10.37;4.10;;;9.60;1.00;;;;;;5045645;28;20481;-86
2023/03/13 09:51:19;;;;;;;12.30;4.20;;;9.60;1.00;;;;;;5047394;28;20488;-87
2023/03/13 09:53:52;;;;;;;9.57;3.70;;;9.60;1.00;;;;;;5043598;28;20522;-87
2023/03/13 09:56:23;;;;;;;14.73;5.17;;;9.60;1.00;;;;;;5046194;28;20536;-88
2023/03/13 09:58:54;;;;;;;10.60;3.90;;;9.70;1.00;;;;;;5045965;28;20564;-87
2023/03/13 10:01:26;;;;;;;8.87;4.23;;;9.70;1.00;;;;;;5042467;28;20562;-88
2023/03/13 10:04:05;;;;;;;10.57;4.87;;;9.70;1.00;;;;;;5048119;28;20484;-87
2023/03/13 10:06:38;;;;;;;12.70;4.23;;;9.80;1.00;;;;;;5045883;28;20469;-87
2023/03/13 10:09:16;;;;;;;14.03;4.37;;;9.80;1.00;;;;;;5044512;28;20475;-88
2023/03/13 10:11:48;;;;;;;12.90;4.23;;;9.90;1.00;;;;;;5050941;28;21060;-90
2023/03/13 10:14:20;;;;;;;8.40;3.50;;;9.90;1.00;;;;;;5058563;28;20964;-86
2023/03/13 10:16:50;;;;;;;9.40;4.20;;;9.90;1.00;;;;;;5045734;28;20453;-86
2023/03/13 10:19:19;;;;;;;8.73;4.03;;;10.00;1.00;;;;;;5047925;28;20500;-89
2023/03/13 10:21:51;;;;;;;8.37;3.97;;;10.00;1.00;;;;;;5047228;28;20548;-86
2023/03/13 10:24:29;;;;;;;9.23;3.50;;;10.00;1.00;;;;;;5063359;28;21022;-88
2023/03/13 10:26:57;;;;;;;10.00;4.03;;;10.10;1.00;;;;;;5068776;28;20420;-89
2023/03/13 10:29:25;;;;;;;8.07;3.77;;;10.20;1.00;;;;;;5073615;28;20485;-90
2023/03/13 10:31:57;;;;;;;13.60;4.87;;;10.30;1.00;;;;;;5069035;28;20459;-90
2023/03/13 10:34:25;;;;;;;9.27;2.90;;;10.30;1.00;;;;;;5071898;28;20451;-86
2023/03/13 10:36:58;;;;;;;12.50;3.50;;;10.40;1.00;;;;;;5065157;28;20484;-85
2023/03/13 10:39:27;;;;;;;7.70;3.07;;;10.50;1.00;;;;;;5061157;28;20488;-87
2023/03/13 10:41:59;;;;;;;6.97;2.70;;;10.50;1.00;;;;;;5050378;28;20564;-88
2023/03/13 10:44:32;;;;;;;8.13;3.63;;;10.50;1.00;;;;;;5048255;28;20455;-90
2023/03/13 10:47:01;;;;;;;5.87;2.70;;;10.50;1.00;;;;;;5058375;28;20510;-85
2023/03/13 10:49:31;;;;;;;8.77;3.40;;;10.60;1.00;;;;;;5057424;28;20501;-88
2023/03/13 10:52:02;;;;;;;8.93;2.87;;;10.80;1.00;;;;;;5065893;28;20542;-89
2023/03/13 10:54:34;;;;;;;10.30;3.00;;;10.90;1.00;;;;;;5066927;28;20487;-90
2023/03/13 10:57:28;;;;;;;6.53;3.30;;;11.00;1.00;;;;;;5065982;28;20488;-86
2023/03/13 10:59:56;;;;;;;8.07;3.30;;;11.20;1.00;;;;;;5063906;28;20570;-88
2023/03/13 11:02:28;;;;;;;6.47;3.33;;;11.30;1.00;;;;;;5070417;28;20431;-89
2023/03/13 11:04:56;;;;;;;6.67;2.77;;;11.50;1.00;;;;;;5069969;28;20444;-89
2023/03/13 11:07:29;;;;;;;7.07;2.73;;;11.70;1.00;;;;;;5066989;28;20476;-88
2023/03/13 11:10:16;;;;;;;6.17;2.70;;;11.90;1.00;;;;;;5060151;28;20445;-88
2023/03/13 11:12:45;;;;;;;8.60;2.93;;;12.00;1.00;;;;;;5100457;27;20462;-88
2023/03/13 11:15:16;;;;;;;6.10;2.50;;;12.00;1.00;;;;;;5067302;28;20489;-84
2023/03/13 11:17:46;;;;;;;5.43;2.60;;;12.00;1.00;;;;;;5066716;28;20655;-85
2023/03/13 11:20:24;;;;;;;6.43;2.60;;;12.20;1.00;;;;;;5067552;28;20889;-86
2023/03/13 11:23:05;;;;;;;7.30;2.43;;;12.80;1.00;;;;;;5063369;28;20519;-86
2023/03/13 11:25:39;;;;;;;6.33;2.10;;;13.80;1.00;;;;;;5068912;28;20458;-86
2023/03/13 11:28:28;;;;;;;9.27;2.97;;;14.60;1.00;;;;;;5073301;28;20502;-88
2023/03/13 11:31:09;;;;;;;4.50;2.10;;;14.70;1.00;;;;;;5063786;28;20460;-87
2023/03/13 11:33:46;;;;;;;5.40;2.07;;;14.60;1.00;;;;;;5063938;28;20434;-86
2023/03/13 11:36:20;;;;;;;5.50;2.30;;;14.70;1.00;;;;;;5063701;28;20424;-87
2023/03/13 11:38:53;;;;;;;4.87;2.30;;;14.50;1.00;;;;;;5065870;28;20518;-87
2023/03/13 11:41:43;;;;;;;5.53;2.00;;;14.40;1.00;;;;;;5063445;28;20488;-89
2023/03/13 11:44:29;;;;;;;4.93;2.10;;;14.30;1.00;;;;;;5065808;28;22398;-88
2023/03/13 11:47:14;;;;;;;7.77;1.97;;;14.30;1.00;;;;;;5069071;28;20489;-89
2023/03/13 11:49:53;;;;;;;5.63;2.17;;;14.40;1.00;;;;;;5066451;28;20452;-89
2023/03/13 11:52:47;;;;;;;4.30;2.03;;;14.50;1.00;;;;;;5072689;28;20462;-89
2023/03/13 11:55:46;;;;;;;4.90;1.70;;;14.50;1.00;;;;;;5072878;28;20985;-89
2023/03/13 11:58:32;;;;;;;4.43;1.53;;;14.30;1.00;;;;;;5070129;28;20457;-89
2023/03/13 12:01:02;;;;;;;5.23;1.60;;;14.20;1.00;;;;;;5068905;28;20549;-88
2023/03/13 12:03:37;;;;;;;5.03;2.20;;;14.10;1.00;;;;;;5071783;28;20489;-90
2023/03/13 12:06:06;;;;;;;4.77;1.77;;;14.00;1.00;;;;;;5093994;27;20504;-87
2023/03/13 12:08:38;;;;;;;4.50;1.80;;;14.00;1.00;;;;;;5072503;28;20464;-88
2023/03/13 12:11:15;;;;;;;5.17;1.90;;;14.00;1.00;;;;;;5075786;28;20485;-88
2023/03/13 12:13:46;;;;;;;5.00;1.60;;;14.00;1.00;;;;;;5079085;28;20572;-85
2023/03/13 12:16:17;;;;;;;5.50;1.70;;;14.00;1.00;;;;;;5074449;28;20461;-87
2023/03/13 12:18:46;;;;;;;5.90;3.20;;;14.30;1.00;;;;;;5074527;28;20435;-87
2023/03/13 12:21:20;;;;;;;4.40;1.50;;;14.90;1.00;;;;;;5073831;28;20512;-89
2023/03/13 12:23:52;;;;;;;4.13;1.60;;;15.50;1.00;;;;;;5075295;28;20656;-90
2023/03/13 12:26:24;;;;;;;3.87;1.40;;;15.70;1.00;;;;;;5062661;28;20451;-89
2023/03/13 12:29:05;;;;;;;4.07;1.77;;;15.60;1.00;;;;;;5076150;28;20527;-91
2023/03/13 12:31:38;;;;;;;5.57;1.60;;;15.50;1.00;;;;;;5065422;28;20459;-86
2023/03/13 12:34:14;;;;;;;4.40;1.43;;;15.70;1.00;;;;;;5066166;28;20499;-87
2023/03/13 12:36:47;;;;;;;4.40;1.50;;;15.80;1.00;;;;;;5061811;28;20467;-87
2023/03/13 12:39:27;;;;;;;4.40;1.77;;;16.10;1.00;;;;;;5041848;28;20488;-88
2023/03/13 12:42:16;;;;;;;4.63;1.60;;;16.80;1.00;;;;;;5046690;28;20464;-87
2023/03/13 12:44:44;;;;;;;4.50;1.60;;;17.60;1.00;;;;;;5042934;28;20856;-87
2023/03/13 12:47:19;;;;;;;4.40;1.60;;;18.00;1.00;;;;;;5042365;28;20446;-88
2023/03/13 12:50:16;;;;;;;5.17;1.57;;;18.00;1.00;;;;;;5049014;28;20460;-88
2023/03/13 12:53:07;;;;;;;4.13;1.30;;;18.20;1.00;;;;;;5045080;28;20485;-87
2023/03/13 12:56:02;;;;;;;5.30;1.70;;;19.00;1.00;;;;;;5048311;28;20465;-88
2023/03/13 12:58:50;;;;;;;4.10;1.30;;;19.40;1.00;;;;;;5057901;28;20456;-88
2023/03/13 13:01:28;;;;;;;4.90;1.30;;;20.40;1.00;;;;;;5058874;27;20457;-89
2023/03/13 13:03:59;;;;;;;3.97;1.07;;;20.60;1.00;;;;;;5069892;28;20535;-87
2023/03/13 13:06:28;;;;;;;4.80;1.53;;;20.60;1.00;;;;;;5065625;28;20479;-89
2023/03/13 13:09:17;;;;;;;4.07;1.27;;;20.30;1.00;;;;;;5059692;27;21012;-87
2023/03/13 13:11:47;;;;;;;5.07;1.50;;;20.00;1.00;;;;;;5062188;28;20459;-88